Time;durP1;ratioP1;P1;durP2;ratioP2;P2;SDS_P1;SDS_P2;PMS_P1;PMS_P2;Temp;Humidity;BMP_temperature;BMP_pressure;BME280_temperature;BME280_humidity;BME280_pressure;Samples;Min_cycle;Max_cycle;Signal;HPM_P1;HPM_P2
2023/05/30 00:00:38;;;;;;;5.57;4.20;;;;;;;15.68;60.94;94849.91;5086540;28;20028;-73
2023/05/30 00:03:04;;;;;;;6.30;4.38;;;;;;;15.64;61.10;94841.78;5087923;28;20023;-73
2023/05/30 00:05:30;;;;;;;9.13;5.13;;;;;;;15.62;61.25;94841.47;5086735;28;20052;-73
2023/05/30 00:07:56;;;;;;;5.90;5.25;;;;;;;15.59;61.13;94842.38;5069628;28;20028;-75
2023/05/30 00:10:21;;;;;;;7.97;4.60;;;;;;;15.59;61.29;94845.16;5088547;28;20475;-73
2023/05/30 00:12:47;;;;;;;7.22;4.40;;;;;;;15.56;61.12;94843.34;5086370;28;20032;-73
2023/05/30 00:15:13;;;;;;;6.90;4.45;;;;;;;15.54;61.19;94852.13;5088106;28;20016;-73
2023/05/30 00:17:38;;;;;;;7.25;5.43;;;;;;;15.50;61.21;94843.22;5087506;28;20506;-73
2023/05/30 00:20:09;;;;;;;6.35;4.72;;;;;;;15.49;61.57;94850.00;5069405;28;20048;-73
2023/05/30 00:22:37;;;;;;;5.60;4.38;;;;;;;15.46;61.55;94852.94;5086385;28;20059;-74
2023/05/30 00:25:03;;;;;;;5.90;4.93;;;;;;;15.44;61.52;94855.44;5086952;28;20046;-73
2023/05/30 00:27:29;;;;;;;7.85;4.35;;;;;;;15.41;61.66;94855.13;5088337;28;20489;-74
2023/05/30 00:29:54;;;;;;;8.98;4.45;;;;;;;15.34;61.93;94849.16;5087524;28;20020;-74
2023/05/30 00:32:20;;;;;;;8.68;4.80;;;;;;;15.20;62.03;94834.00;5086173;28;20032;-74
2023/05/30 00:34:45;;;;;;;7.50;5.28;;;;;;;15.31;61.98;94858.41;5069134;28;20023;-73
2023/05/30 00:37:10;;;;;;;7.35;4.45;;;;;;;15.28;62.23;94859.34;5090712;28;20028;-74
2023/05/30 00:39:36;;;;;;;9.50;4.55;;;;;;;15.28;61.93;94859.34;5085941;28;20032;-73
2023/05/30 00:42:03;;;;;;;6.35;4.43;;;;;;;15.24;62.12;94859.50;5085748;28;20085;-73
2023/05/30 00:44:28;;;;;;;5.88;4.22;;;;;;;15.26;62.28;94862.59;5069279;28;20106;-73
2023/05/30 00:46:54;;;;;;;8.30;4.70;;;;;;;15.25;62.20;94865.81;5084492;28;20024;-73
2023/05/30 00:49:20;;;;;;;7.50;4.72;;;;;;;15.23;62.04;94862.75;5086977;28;20026;-73
2023/05/30 00:51:46;;;;;;;7.45;4.55;;;;;;;15.20;62.38;94860.94;5085433;28;20429;-73
2023/05/30 00:54:12;;;;;;;9.35;4.50;;;;;;;15.18;62.47;94860.63;5069200;28;20038;-74
2023/05/30 00:56:38;;;;;;;5.65;4.28;;;;;;;15.16;62.37;94857.56;5085500;28;20201;-73
2023/05/30 00:59:03;;;;;;;5.95;4.03;;;;;;;15.10;62.48;94860.22;5086921;28;20491;-74
2023/05/30 01:01:32;;;;;;;6.03;4.50;;;;;;;15.08;62.33;94860.69;5085695;28;20465;-74
2023/05/30 01:03:58;;;;;;;7.43;4.47;;;;;;;15.06;62.29;94859.59;5085594;28;20031;-73
2023/05/30 01:06:27;;;;;;;7.38;5.32;;;;;;;15.01;62.44;94857.47;5087114;28;20415;-73
2023/05/30 01:08:52;;;;;;;6.28;4.43;;;;;;;15.02;62.31;94856.22;5085378;28;20020;-73
2023/05/30 01:11:52;;;;;;;7.93;5.00;;;;;;;14.98;62.40;94859.19;5085514;28;20433;-73
2023/05/30 01:14:25;;;;;;;7.65;4.88;;;;;;;14.91;62.59;94855.97;5086583;28;20510;-73
2023/05/30 01:16:58;;;;;;;6.75;4.30;;;;;;;14.83;62.93;94856.31;5085141;28;20024;-72
2023/05/30 01:19:46;;;;;;;6.13;4.60;;;;;;;14.79;62.90;94858.47;5085491;28;20043;-74
2023/05/30 01:22:32;;;;;;;6.32;4.32;;;;;;;14.78;62.84;94848.63;5068962;28;20079;-73
2023/05/30 01:25:27;;;;;;;7.97;4.60;;;;;;;14.82;62.75;94856.78;5068612;28;20053;-74
2023/05/30 01:28:09;;;;;;;6.40;4.57;;;;;;;14.79;62.95;94854.94;5057176;28;20044;-73
2023/05/30 01:30:37;;;;;;;6.10;4.75;;;;;;;14.75;62.94;94843.28;5084794;28;20107;-73
2023/05/30 01:33:05;;;;;;;7.05;4.85;;;;;;;14.77;62.99;94854.63;5085550;28;20458;-74
2023/05/30 01:35:30;;;;;;;6.78;4.60;;;;;;;14.71;62.83;94834.38;5084375;28;20528;-74
2023/05/30 01:37:55;;;;;;;8.18;4.80;;;;;;;14.73;62.73;94842.97;5084884;28;20559;-74
2023/05/30 01:40:24;;;;;;;8.10;4.45;;;;;;;14.73;62.94;94845.72;5086084;28;20037;-74
2023/05/30 01:42:57;;;;;;;6.30;4.57;;;;;;;14.69;62.84;94842.38;5088306;28;20024;-74
2023/05/30 01:45:32;;;;;;;7.57;4.82;;;;;;;14.69;62.96;94850.69;5087328;28;20016;-74
2023/05/30 01:48:40;;;;;;;7.72;4.70;;;;;;;14.67;63.18;94842.06;5084182;28;20444;-73
2023/05/30 01:51:11;;;;;;;8.43;4.93;;;;;;;14.63;63.23;94844.25;4988505;28;20059;-73
2023/05/30 01:53:39;;;;;;;6.13;4.70;;;;;;;14.59;63.40;94841.63;5067723;28;20425;-73
2023/05/30 01:56:07;;;;;;;6.57;4.85;;;;;;;14.58;63.35;94851.94;5084430;28;20031;-73
2023/05/30 01:58:32;;;;;;;8.20;4.82;;;;;;;14.59;63.53;94855.47;5086083;28;20020;-74
2023/05/30 02:00:58;;;;;;;9.38;4.80;;;;;;;14.51;63.30;94852.25;5067252;28;20448;-74
2023/05/30 02:03:24;;;;;;;8.20;5.03;;;;;;;14.54;63.39;94856.09;5067810;28;20027;-74
2023/05/30 02:05:50;;;;;;;10.98;4.70;;;;;;;14.54;63.46;94851.31;5084060;28;20044;-73
2023/05/30 02:08:15;;;;;;;10.80;4.97;;;;;;;14.55;63.63;94860.38;5084449;28;20028;-74
2023/05/30 02:10:41;;;;;;;7.07;5.03;;;;;;;14.51;63.61;94854.25;5085377;28;20028;-73
2023/05/30 02:13:06;;;;;;;5.55;4.43;;;;;;;14.50;63.62;94861.75;5084225;28;20118;-73
2023/05/30 02:15:32;;;;;;;6.38;4.80;;;;;;;14.49;63.57;94862.22;5084148;28;20032;-73
2023/05/30 02:17:59;;;;;;;7.05;4.78;;;;;;;14.45;63.55;94850.53;5084058;28;20069;-74
2023/05/30 02:20:25;;;;;;;8.32;4.80;;;;;;;14.46;63.98;94858.38;5084381;28;20029;-74
2023/05/30 02:22:51;;;;;;;7.38;5.40;;;;;;;14.46;63.56;94868.69;5083766;28;20380;-75
2023/05/30 02:25:17;;;;;;;6.53;4.80;;;;;;;14.44;63.55;94862.81;5085686;28;20024;-74
2023/05/30 02:27:42;;;;;;;8.13;4.40;;;;;;;14.45;63.20;94867.13;5083611;28;20043;-74
2023/05/30 02:30:08;;;;;;;7.53;5.03;;;;;;;14.43;63.23;94872.34;5085200;28;20107;-75
2023/05/30 02:32:33;;;;;;;7.70;4.45;;;;;;;14.39;63.13;94864.22;5066875;28;20491;-75
2023/05/30 02:34:58;;;;;;;7.80;4.53;;;;;;;14.36;63.34;94862.38;5085114;28;20077;-74
2023/05/30 02:37:24;;;;;;;10.40;4.63;;;;;;;14.32;63.31;94865.31;5067003;28;20020;-74
2023/05/30 02:39:49;;;;;;;8.45;4.50;;;;;;;14.32;63.28;94865.31;5086398;28;20494;-75
2023/05/30 02:42:14;;;;;;;9.45;5.25;;;;;;;14.28;63.33;94858.41;5084689;28;20101;-75
2023/05/30 02:44:40;;;;;;;7.00;4.85;;;;;;;14.28;63.26;94866.72;5083433;28;20020;-75
2023/05/30 02:47:06;;;;;;;8.38;4.47;;;;;;;14.26;63.35;94867.16;5086197;28;20052;-74
2023/05/30 02:49:32;;;;;;;10.55;5.60;;;;;;;14.26;63.44;94860.84;5089107;28;20020;-75
2023/05/30 02:51:58;;;;;;;8.85;5.22;;;;;;;14.25;63.43;94862.09;5084650;28;20482;-75
2023/05/30 02:54:23;;;;;;;11.68;5.15;;;;;;;14.24;63.36;94858.56;5085331;28;20020;-76
2023/05/30 02:56:48;;;;;;;8.80;5.00;;;;;;;14.24;63.29;94858.56;5083174;28;20031;-74
2023/05/30 02:59:14;;;;;;;6.20;4.30;;;;;;;14.21;63.35;94859.47;5083971;28;20032;-75
2023/05/30 03:01:40;;;;;;;11.75;4.93;;;;;;;14.20;63.65;94866.25;5084411;28;20059;-75
2023/05/30 03:04:06;;;;;;;6.57;5.70;;;;;;;14.19;63.43;94866.72;5083754;28;20078;-75
2023/05/30 03:06:31;;;;;;;7.38;4.50;;;;;;;14.17;63.40;94860.88;5083151;28;20024;-75
2023/05/30 03:09:01;;;;;;;7.82;4.93;;;;;;;14.16;63.61;94862.84;5083187;28;20043;-76
2023/05/30 03:11:26;;;;;;;8.07;4.78;;;;;;;14.13;63.62;94860.25;5083484;28;20012;-74
2023/05/30 03:13:53;;;;;;;11.50;5.15;;;;;;;14.12;63.49;94861.50;5084472;28;20031;-74
2023/05/30 03:16:18;;;;;;;9.68;4.97;;;;;;;14.06;63.58;94856.59;5085396;28;20020;-74
2023/05/30 03:18:44;;;;;;;10.55;5.47;;;;;;;14.09;63.59;94863.94;5066064;28;20085;-75
2023/05/30 03:21:10;;;;;;;8.55;5.55;;;;;;;14.11;63.86;94865.47;5083740;28;20028;-75
2023/05/30 03:23:36;;;;;;;10.57;5.05;;;;;;;14.09;63.83;94863.94;5082850;28;20024;-74
2023/05/30 03:26:03;;;;;;;9.07;4.70;;;;;;;14.09;64.03;94863.94;5083334;28;20095;-75
2023/05/30 03:28:28;;;;;;;10.48;5.80;;;;;;;14.08;63.93;94858.88;5083673;28;20482;-75
2023/05/30 03:30:56;;;;;;;11.95;5.30;;;;;;;14.08;64.06;94864.41;5085076;28;20032;-75
2023/05/30 03:33:22;;;;;;;15.25;5.65;;;;;;;14.04;64.13;94866.53;5085170;28;20115;-75
2023/05/30 03:35:48;;;;;;;9.68;5.30;;;;;;;14.06;64.27;94864.13;5085389;28;20058;-74
2023/05/30 03:38:13;;;;;;;8.85;5.35;;;;;;;14.05;64.19;94866.09;5085098;28;20063;-75
2023/05/30 03:40:39;;;;;;;9.25;5.45;;;;;;;14.08;64.16;94878.22;5082967;28;20510;-74
2023/05/30 03:43:04;;;;;;;13.05;5.68;;;;;;;14.09;64.29;94872.22;5085187;28;20020;-75
2023/05/30 03:45:30;;;;;;;8.02;5.78;;;;;;;14.08;64.26;94872.69;5083575;28;20483;-75
2023/05/30 03:47:55;;;;;;;7.50;6.05;;;;;;;14.03;64.26;94876.06;5085337;28;20065;-75
2023/05/30 03:50:20;;;;;;;11.02;6.22;;;;;;;14.02;64.25;94889.13;5083491;28;20090;-73
2023/05/30 03:52:47;;;;;;;10.98;6.60;;;;;;;14.07;64.19;94882.22;5087677;28;20032;-75
2023/05/30 03:55:14;;;;;;;13.35;6.85;;;;;;;14.10;64.33;94895.09;5083945;28;20482;-75
2023/05/30 03:57:41;;;;;;;12.80;6.18;;;;;;;14.14;64.25;94889.44;5082818;28;20036;-76
2023/05/30 04:00:07;;;;;;;12.77;6.22;;;;;;;14.15;64.24;94888.19;5083563;28;20028;-75
2023/05/30 04:02:32;;;;;;;15.55;6.47;;;;;;;14.16;64.26;94896.03;5066178;28;20038;-74
2023/05/30 04:04:57;;;;;;;18.45;6.40;;;;;;;14.16;64.18;94892.50;5084222;28;20055;-76
2023/05/30 04:07:24;;;;;;;12.40;6.82;;;;;;;14.18;64.22;94906.66;5083323;28;20100;-75
2023/05/30 04:09:51;;;;;;;9.48;6.05;;;;;;;14.17;64.38;94892.06;5065887;28;20143;-74
2023/05/30 04:12:20;;;;;;;10.65;6.25;;;;;;;14.19;64.18;94897.88;5083175;28;20028;-75
2023/05/30 04:14:45;;;;;;;14.48;6.53;;;;;;;14.22;64.37;94905.25;5082358;28;20471;-76
2023/05/30 04:17:11;;;;;;;14.57;6.65;;;;;;;14.23;64.21;94906.81;5083232;28;20028;-75
2023/05/30 04:19:36;;;;;;;13.68;7.03;;;;;;;14.24;63.84;94924.91;5082261;28;20028;-75
2023/05/30 04:22:04;;;;;;;11.45;6.63;;;;;;;14.29;64.09;94916.00;5086692;28;20067;-75
2023/05/30 04:24:29;;;;;;;9.77;7.03;;;;;;;14.28;64.08;94914.47;5088193;28;20182;-75
2023/05/30 04:26:55;;;;;;;14.50;7.45;;;;;;;14.28;64.21;94920.00;5086047;28;20138;-75
2023/05/30 04:29:22;;;;;;;12.70;7.15;;;;;;;14.26;64.00;94918.91;5069817;28;20024;-75
2023/05/30 04:31:48;;;;;;;10.27;6.50;;;;;;;14.16;64.32;94918.16;5087922;28;20035;-75
2023/05/30 04:34:15;;;;;;;12.10;6.97;;;;;;;14.19;64.18;94920.00;5087041;28;20024;-75
2023/05/30 04:36:41;;;;;;;11.30;6.53;;;;;;;14.24;64.04;94913.09;5087300;28;20024;-75
2023/05/30 04:39:07;;;;;;;10.52;6.63;;;;;;;14.30;64.00;94906.47;5085873;28;20062;-75
2023/05/30 04:41:33;;;;;;;21.77;7.05;;;;;;;14.42;63.96;94913.06;5087483;28;20028;-75
2023/05/30 04:43:59;;;;;;;16.92;7.90;;;;;;;14.49;64.12;94921.09;5085791;28;20036;-75
2023/05/30 04:46:28;;;;;;;12.45;6.72;;;;;;;14.56;63.99;94922.75;5087567;28;20506;-74
2023/05/30 04:49:00;;;;;;;15.10;7.35;;;;;;;14.61;63.80;94922.91;5087180;28;20020;-74
2023/05/30 04:51:26;;;;;;;14.93;7.38;;;;;;;14.69;63.72;94925.38;5088197;28;20077;-73
2023/05/30 04:53:51;;;;;;;16.98;7.30;;;;;;;14.78;63.57;94930.88;5085646;28;20024;-74
2023/05/30 04:56:17;;;;;;;17.55;6.97;;;;;;;14.83;63.67;94933.03;5087190;28;20032;-73
2023/05/30 04:58:48;;;;;;;15.10;7.30;;;;;;;14.92;63.92;94941.31;5088155;28;20099;-73
2023/05/30 05:01:13;;;;;;;13.43;8.57;;;;;;;14.98;63.94;94936.69;5087090;28;20029;-73
2023/05/30 05:03:40;;;;;;;13.98;8.10;;;;;;;15.06;63.85;94935.09;5085785;28;20081;-73
2023/05/30 05:06:06;;;;;;;15.55;7.65;;;;;;;15.14;63.69;94938.34;5086589;28;20044;-73
2023/05/30 05:08:33;;;;;;;13.57;7.80;;;;;;;15.22;63.55;94934.00;5087506;28;20016;-73
2023/05/30 05:11:01;;;;;;;13.77;7.60;;;;;;;15.32;63.21;94937.50;5085802;28;20036;-75
2023/05/30 05:13:27;;;;;;;13.35;8.23;;;;;;;15.39;62.97;94937.16;5087557;28;20644;-76
2023/05/30 05:15:52;;;;;;;10.95;6.70;;;;;;;15.46;62.94;94947.88;5068730;28;20177;-75
2023/05/30 05:18:18;;;;;;;13.88;7.57;;;;;;;15.53;62.68;94939.22;5068505;28;20589;-75
2023/05/30 05:20:43;;;;;;;13.63;7.32;;;;;;;15.57;62.45;94950.91;5085270;28;20020;-75
2023/05/30 05:23:09;;;;;;;11.20;7.25;;;;;;;15.64;62.31;94945.06;5086560;28;20061;-75
2023/05/30 05:25:34;;;;;;;14.18;7.47;;;;;;;15.72;62.20;94951.03;5088968;28;20189;-75
2023/05/30 05:28:00;;;;;;;19.02;9.13;;;;;;;15.76;62.16;94943.28;5086485;28;20487;-75
2023/05/30 05:30:25;;;;;;;11.35;8.18;;;;;;;15.84;61.94;94952.81;5068814;28;20157;-75
2023/05/30 05:32:51;;;;;;;18.70;8.85;;;;;;;15.88;61.99;94955.41;5084223;28;20039;-75
2023/05/30 05:35:16;;;;;;;15.25;7.55;;;;;;;15.96;61.31;94956.59;5086609;28;20031;-74
2023/05/30 05:37:42;;;;;;;10.02;7.63;;;;;;;16.01;61.25;94961.50;5086370;28;20033;-74
2023/05/30 05:40:08;;;;;;;13.88;7.43;;;;;;;16.13;61.41;94968.03;5084903;28;20035;-75
2023/05/30 05:42:34;;;;;;;15.98;7.20;;;;;;;16.19;61.20;94963.38;5085031;28;20028;-74
2023/05/30 05:45:00;;;;;;;10.60;6.80;;;;;;;16.29;60.92;94961.31;5084862;28;20047;-74
2023/05/30 05:47:30;;;;;;;7.85;6.13;;;;;;;16.32;60.53;94966.66;5068252;28;20024;-77
2023/05/30 05:49:55;;;;;;;11.80;6.50;;;;;;;16.50;60.45;94976.84;5067961;28;20028;-75
2023/05/30 05:52:21;;;;;;;13.55;6.63;;;;;;;16.59;60.15;94974.00;5084998;28;20035;-74
2023/05/30 05:54:46;;;;;;;11.88;6.32;;;;;;;16.66;59.83;94976.41;5085934;28;20028;-73
2023/05/30 05:57:11;;;;;;;8.05;6.07;;;;;;;16.76;59.78;94970.81;5084672;28;20028;-74
2023/05/30 05:59:37;;;;;;;11.52;6.45;;;;;;;16.85;59.12;94973.50;5084774;28;20043;-74
2023/05/30 06:02:02;;;;;;;11.90;6.53;;;;;;;16.94;58.86;94971.41;5085654;28;20106;-74
2023/05/30 06:04:28;;;;;;;15.38;7.22;;;;;;;17.02;58.73;94968.25;5084578;28;20039;-76
2023/05/30 06:06:53;;;;;;;10.80;6.75;;;;;;;17.09;58.79;94973.41;5084169;28;20020;-75
2023/05/30 06:09:20;;;;;;;13.13;7.25;;;;;;;17.17;58.58;94969.03;5067777;28;20460;-75
2023/05/30 06:11:45;;;;;;;9.73;6.28;;;;;;;17.25;58.36;94976.47;5067308;28;20024;-74
2023/05/30 06:14:12;;;;;;;9.63;6.38;;;;;;;17.38;57.95;94975.44;5084474;28;20040;-75
2023/05/30 06:16:37;;;;;;;9.80;6.85;;;;;;;17.46;58.19;94977.34;5084129;28;20024;-74
2023/05/30 06:19:03;;;;;;;14.48;6.55;;;;;;;17.58;57.79;94983.84;5083847;28;20031;-75
2023/05/30 06:21:32;;;;;;;11.57;7.60;;;;;;;17.68;57.09;94984.50;5087877;28;20028;-76
2023/05/30 06:23:59;;;;;;;12.40;8.13;;;;;;;17.76;56.88;94980.09;5067494;28;20513;-74
2023/05/30 06:26:25;;;;;;;11.52;6.57;;;;;;;17.94;56.35;94985.41;5084023;28;20119;-73
2023/05/30 06:28:50;;;;;;;11.20;6.97;;;;;;;18.09;56.38;94988.16;5066604;28;20455;-75
2023/05/30 06:31:16;;;;;;;12.23;6.65;;;;;;;18.24;56.24;94983.31;5067066;28;20024;-75
2023/05/30 06:33:41;;;;;;;10.68;6.63;;;;;;;18.25;55.80;94987.63;5083748;28;20070;-75
2023/05/30 06:36:07;;;;;;;12.80;6.65;;;;;;;18.37;55.87;94996.13;5067024;28;20031;-76
2023/05/30 06:38:32;;;;;;;12.60;7.85;;;;;;;18.50;55.18;95005.63;5066495;28;20613;-75
2023/05/30 06:40:58;;;;;;;12.30;6.50;;;;;;;18.56;55.67;94994.56;5066766;28;20077;-74
2023/05/30 06:43:23;;;;;;;10.20;7.03;;;;;;;18.42;55.59;94996.19;5083582;28;20035;-75
2023/05/30 06:45:49;;;;;;;10.25;6.05;;;;;;;18.50;55.72;94999.31;5082615;28;20035;-75
2023/05/30 06:48:14;;;;;;;13.30;5.80;;;;;;;18.52;55.29;94983.66;5083894;28;20027;-75
2023/05/30 06:50:40;;;;;;;8.10;4.65;;;;;;;18.57;55.08;94994.06;5084369;28;20032;-75
2023/05/30 06:53:05;;;;;;;8.70;5.32;;;;;;;18.62;55.00;95003.75;5085438;28;20552;-75
2023/05/30 06:55:30;;;;;;;9.20;4.80;;;;;;;18.64;54.64;95008.81;5084506;28;20020;-75
2023/05/30 06:57:56;;;;;;;6.55;4.85;;;;;;;18.58;55.00;95003.22;5084913;28;20659;-75
2023/05/30 07:00:22;;;;;;;9.00;5.78;;;;;;;18.68;54.90;94996.25;5066544;28;20387;-76
2023/05/30 07:02:47;;;;;;;8.65;5.38;;;;;;;18.68;54.90;94992.72;5083730;28;20027;-76
2023/05/30 07:05:13;;;;;;;9.20;5.30;;;;;;;18.72;55.11;94994.03;5083281;28;20055;-75
2023/05/30 07:07:42;;;;;;;8.00;5.72;;;;;;;18.80;55.02;95000.69;5088741;28;20047;-75
2023/05/30 07:10:09;;;;;;;11.35;5.32;;;;;;;18.85;54.54;94999.22;5084004;28;20032;-75
2023/05/30 07:12:35;;;;;;;10.55;5.80;;;;;;;18.92;54.44;94998.03;5066245;28;20563;-75
2023/05/30 07:15:02;;;;;;;10.07;5.15;;;;;;;18.93;54.36;95005.91;5085437;28;20448;-76
2023/05/30 07:17:28;;;;;;;9.13;5.10;;;;;;;18.96;54.52;95009.72;5085375;28;20486;-75
2023/05/30 07:19:54;;;;;;;9.05;4.90;;;;;;;18.95;54.78;95000.63;5084775;28;20021;-75
2023/05/30 07:22:19;;;;;;;9.38;5.32;;;;;;;19.04;55.03;95005.28;5083632;28;20024;-75
2023/05/30 07:24:45;;;;;;;11.20;5.15;;;;;;;19.10;55.10;95006.88;5065996;28;20032;-75
2023/05/30 07:27:10;;;;;;;10.32;5.03;;;;;;;19.15;55.10;95008.16;5067390;28;20024;-75
2023/05/30 07:29:36;;;;;;;9.32;6.25;;;;;;;19.24;54.72;95021.94;5083907;28;20032;-75
2023/05/30 07:32:02;;;;;;;7.50;6.03;;;;;;;19.33;54.68;95021.78;5084821;28;20409;-75
2023/05/30 07:34:27;;;;;;;8.45;5.05;;;;;;;19.42;54.59;95015.25;5084868;28;20523;-75
2023/05/30 07:36:53;;;;;;;7.38;4.88;;;;;;;19.52;54.33;95011.03;5082724;28;20048;-75
2023/05/30 07:39:19;;;;;;;8.30;4.70;;;;;;;19.66;53.75;95017.75;5083004;28;20032;-75
2023/05/30 07:41:45;;;;;;;5.32;4.20;;;;;;;19.73;53.47;95006.19;5084443;28;20537;-75
2023/05/30 07:44:11;;;;;;;6.88;4.95;;;;;;;19.76;53.12;94996.81;5084849;28;20119;-75
2023/05/30 07:46:36;;;;;;;8.20;5.05;;;;;;;19.85;53.17;95007.78;5066065;28;20493;-75
2023/05/30 07:49:02;;;;;;;8.82;4.57;;;;;;;19.92;53.25;95006.56;5066575;28;20505;-75
2023/05/30 07:51:27;;;;;;;8.45;4.95;;;;;;;20.09;53.18;95009.47;5065383;28;20032;-75
2023/05/30 07:53:53;;;;;;;7.60;5.22;;;;;;;20.17;53.11;95011.28;5083317;28;20030;-75
2023/05/30 07:56:20;;;;;;;10.55;6.10;;;;;;;20.23;52.60;95014.09;5084880;28;20102;-76
2023/05/30 07:58:46;;;;;;;10.80;5.38;;;;;;;20.34;52.35;95016.97;5088302;28;20340;-76
2023/05/30 08:01:11;;;;;;;10.40;5.45;;;;;;;20.39;52.28;95018.25;5086827;28;20458;-75
2023/05/30 08:03:36;;;;;;;8.90;5.70;;;;;;;;;;5086585;28;20107;-76
2023/05/30 08:06:02;;;;;;;11.25;5.75;;;;;;;20.71;52.22;95007.78;5088578;28;20494;-75
2023/05/30 08:08:27;;;;;;;9.65;5.95;;;;;;;20.92;51.23;95009.13;5069432;28;20131;-76
2023/05/30 08:10:53;;;;;;;7.90;5.45;;;;;;;21.04;51.08;95006.34;5090344;28;20486;-76
2023/05/30 08:13:18;;;;;;;9.48;4.53;;;;;;;21.05;51.76;95016.28;5090070;28;20043;-76
2023/05/30 08:15:44;;;;;;;7.50;4.25;;;;;;;21.13;51.14;95014.53;5086409;28;20115;-75
2023/05/30 08:18:10;;;;;;;5.80;5.05;;;;;;;21.18;51.39;95014.53;5087104;28;20028;-76
2023/05/30 08:20:36;;;;;;;7.50;4.15;;;;;;;21.14;51.96;95027.22;5086359;28;20113;-76
2023/05/30 08:23:03;;;;;;;4.55;3.03;;;;;;;20.96;51.55;95017.25;5069752;28;20477;-76
2023/05/30 08:25:32;;;;;;;4.78;3.30;;;;;;;20.94;51.34;95020.56;5086646;28;20058;-76
2023/05/30 08:27:59;;;;;;;4.60;2.75;;;;;;;21.03;50.76;95018.81;5086735;28;20100;-76
2023/05/30 08:30:24;;;;;;;6.80;3.78;;;;;;;21.07;50.76;95028.47;5086303;28;20039;-76
2023/05/30 08:32:50;;;;;;;5.22;3.03;;;;;;;21.10;50.46;95021.88;5086444;28;20032;-75
2023/05/30 08:35:15;;;;;;;5.50;3.58;;;;;;;21.16;50.38;95021.88;5086289;28;20032;-76
2023/05/30 08:37:41;;;;;;;5.43;3.47;;;;;;;21.17;50.23;95018.59;5085938;28;20026;-76
2023/05/30 08:40:10;;;;;;;6.55;2.80;;;;;;;21.17;49.79;95009.44;5069151;28;20136;-75
2023/05/30 08:42:37;;;;;;;6.05;3.00;;;;;;;21.26;49.09;95014.78;5087618;28;20038;-76
2023/05/30 08:45:04;;;;;;;4.05;2.55;;;;;;;21.30;49.00;95018.13;5086551;28;20032;-75
2023/05/30 08:47:31;;;;;;;6.20;2.70;;;;;;;21.38;49.09;95016.38;5069031;28;20493;-75
2023/05/30 08:49:57;;;;;;;5.03;2.40;;;;;;;21.48;48.40;95026.03;5069155;28;20028;-75
2023/05/30 08:52:26;;;;;;;3.00;2.42;;;;;;;21.64;48.28;95018.94;5086275;28;20031;-75
2023/05/30 08:55:13;;;;;;;2.72;1.98;;;;;;;21.79;48.04;95029.88;5085697;28;20028;-75
2023/05/30 08:57:56;;;;;;;3.22;2.03;;;;;;;21.76;47.86;95024.53;5068998;28;20044;-75
2023/05/30 09:00:22;;;;;;;2.53;1.47;;;;;;;21.86;47.30;95025.81;5085833;28;20039;-76
2023/05/30 09:02:49;;;;;;;3.85;1.85;;;;;;;21.93;46.93;95028.84;5085879;28;20510;-76
2023/05/30 09:05:17;;;;;;;4.25;2.70;;;;;;;22.01;46.94;95031.91;5068970;28;20054;-76
2023/05/30 09:07:43;;;;;;;4.18;2.42;;;;;;;22.09;47.38;95032.16;5086812;28;20076;-76
2023/05/30 09:10:11;;;;;;;6.35;3.88;;;;;;;22.22;47.00;95035.97;5085531;28;20044;-76
2023/05/30 09:12:36;;;;;;;5.72;3.28;;;;;;;22.35;46.93;95027.03;5085850;28;20415;-74
2023/05/30 09:15:02;;;;;;;3.97;2.63;;;;;;;22.47;46.21;95016.56;5085498;28;20027;-75
2023/05/30 09:17:28;;;;;;;5.25;3.80;;;;;;;22.51;46.46;95026.25;5090420;28;20024;-76
2023/05/30 09:19:53;;;;;;;5.88;3.40;;;;;;;22.55;46.24;95023.19;5068777;28;20093;-76
2023/05/30 09:22:19;;;;;;;4.28;2.90;;;;;;;22.57;46.55;95019.88;5068391;28;20020;-76
2023/05/30 09:24:57;;;;;;;5.07;3.25;;;;;;;22.77;46.45;95030.75;5085709;28;20035;-76
2023/05/30 09:27:23;;;;;;;4.25;3.30;;;;;;;22.82;47.27;95029.94;5085399;28;20097;-75
2023/05/30 09:29:49;;;;;;;4.72;2.60;;;;;;;22.85;46.98;95028.19;5085051;28;20092;-75
2023/05/30 09:32:14;;;;;;;4.55;2.65;;;;;;;22.91;47.25;95035.31;5085549;28;20384;-76
2023/05/30 09:34:40;;;;;;;7.25;3.90;;;;;;;22.85;47.29;95023.31;5068120;28;20539;-74
2023/05/30 09:37:05;;;;;;;5.10;2.60;;;;;;;22.84;46.99;95021.06;5085513;28;20023;-78
2023/05/30 09:39:32;;;;;;;4.32;2.70;;;;;;;22.78;46.75;95021.84;5084702;28;20032;-78
2023/05/30 09:41:58;;;;;;;4.53;2.63;;;;;;;22.78;46.46;95021.84;5086722;28;20024;-75
2023/05/30 09:44:24;;;;;;;5.65;2.80;;;;;;;22.78;46.65;95021.84;5085066;28;20051;-75
2023/05/30 09:46:58;;;;;;;6.32;2.53;;;;;;;22.80;46.73;95012.91;5068181;28;20030;-75
2023/05/30 09:49:26;;;;;;;4.68;2.70;;;;;;;22.84;46.76;95013.41;5084720;28;20418;-75
2023/05/30 09:51:53;;;;;;;4.85;3.20;;;;;;;22.94;46.16;95022.28;5084923;28;20028;-75
2023/05/30 09:54:19;;;;;;;4.15;3.40;;;;;;;22.85;46.33;95016.97;5085654;28;20035;-75
2023/05/30 09:56:44;;;;;;;6.82;3.65;;;;;;;23.01;45.75;95013.34;5067635;28;20028;-75
2023/05/30 09:59:12;;;;;;;8.88;3.97;;;;;;;23.18;44.73;95016.06;5084653;28;20422;-76
2023/05/30 10:01:46;;;;;;;3.90;2.60;;;;;;;23.25;44.75;95018.31;5086366;28;20081;-76
2023/05/30 10:04:22;;;;;;;3.47;2.42;;;;;;;23.29;45.19;95013.19;5067086;28;20042;-75
2023/05/30 10:06:54;;;;;;;3.55;2.30;;;;;;;23.24;45.40;95011.19;5067606;28;20525;-75
2023/05/30 10:09:20;;;;;;;6.13;4.18;;;;;;;23.30;46.00;95009.13;5083761;28;20123;-75
2023/05/30 10:11:46;;;;;;;4.70;3.90;;;;;;;23.39;45.69;95005.97;5067813;28;20388;-75
2023/05/30 10:14:13;;;;;;;5.55;3.50;;;;;;;23.48;45.14;95002.88;5083720;28;20039;-75
2023/05/30 10:17:11;;;;;;;6.55;3.92;;;;;;;23.56;44.99;95005.88;5084547;28;20509;-76
2023/05/30 10:19:44;;;;;;;6.68;3.00;;;;;;;23.63;44.92;95007.38;5083945;28;20035;-75
2023/05/30 10:22:10;;;;;;;4.38;3.08;;;;;;;23.62;44.96;95012.22;5088373;28;20035;-75
2023/05/30 10:24:36;;;;;;;4.65;2.70;;;;;;;23.53;45.32;95007.69;5085067;28;20032;-75
2023/05/30 10:27:03;;;;;;;2.65;2.20;;;;;;;23.58;45.26;95001.28;5066811;28;20054;-75
2023/05/30 10:29:32;;;;;;;3.10;2.10;;;;;;;23.54;45.38;94997.97;5084462;28;20113;-75
2023/05/30 10:32:01;;;;;;;11.05;5.22;;;;;;;23.68;44.90;95001.72;5084341;28;20043;-74
2023/05/30 10:34:42;;;;;;;6.70;3.10;;;;;;;23.59;44.63;94990.81;5067337;28;20062;-75
2023/05/30 10:37:08;;;;;;;8.73;4.25;;;;;;;23.68;44.82;94992.53;5067027;28;20036;-75
2023/05/30 10:39:43;;;;;;;7.15;3.28;;;;;;;23.67;45.11;94985.41;5083639;28;20111;-75
2023/05/30 10:42:19;;;;;;;3.65;2.58;;;;;;;23.68;45.37;94978.50;5083927;28;20039;-75
2023/05/30 10:44:58;;;;;;;5.10;2.50;;;;;;;23.75;45.22;94975.91;5066897;28;20028;-75
2023/05/30 10:47:38;;;;;;;3.85;2.38;;;;;;;23.65;45.41;94965.53;5084644;28;20031;-75
2023/05/30 10:50:08;;;;;;;2.90;2.40;;;;;;;23.66;45.28;94961.44;5084075;28;20069;-77
2023/05/30 10:52:33;;;;;;;5.72;3.13;;;;;;;23.72;45.64;94970.56;5066470;28;20078;-74
2023/05/30 10:55:00;;;;;;;4.82;2.25;;;;;;;23.68;45.93;94970.09;5084026;28;20068;-75
2023/05/30 10:57:28;;;;;;;5.50;2.40;;;;;;;23.69;45.25;94968.84;5086325;28;20031;-75
2023/05/30 10:59:55;;;;;;;4.32;2.97;;;;;;;23.67;44.93;94960.16;5084043;28;20063;-76
2023/05/30 11:02:34;;;;;;;4.47;2.70;;;;;;;23.84;44.17;94953.09;5083635;28;20027;-75
2023/05/30 11:05:07;;;;;;;4.80;2.20;;;;;;;23.92;44.18;94963.78;5066592;28;20055;-75
2023/05/30 11:07:35;;;;;;;5.50;1.92;;;;;;;23.98;43.80;94953.25;5083940;28;20024;-74
2023/05/30 11:10:02;;;;;;;3.80;2.50;;;;;;;23.96;44.03;94956.56;5083075;28;20028;-75
2023/05/30 11:12:29;;;;;;;4.20;2.10;;;;;;;23.93;42.63;94949.22;5066511;28;20089;-75
2023/05/30 11:14:58;;;;;;;2.90;1.70;;;;;;;24.02;42.04;94934.81;5083312;28;20075;-75
2023/05/30 11:17:34;;;;;;;2.90;1.73;;;;;;;24.13;41.96;94930.38;5083589;28;20046;-74
2023/05/30 11:20:14;;;;;;;4.07;1.80;;;;;;;24.11;41.49;94928.09;5083131;28;20032;-76
2023/05/30 11:23:00;;;;;;;2.60;1.90;;;;;;;24.43;41.57;94917.06;5066387;28;20433;-75
2023/05/30 11:25:27;;;;;;;2.63;2.03;;;;;;;24.46;41.65;94909.59;5065654;28;20506;-75
2023/05/30 11:27:59;;;;;;;3.35;2.15;;;;;;;24.52;42.02;94910.28;5089998;28;20058;-76
2023/05/30 11:30:25;;;;;;;5.60;2.25;;;;;;;24.55;41.49;94904.38;5083995;28;20065;-76
2023/05/30 11:32:50;;;;;;;2.70;2.25;;;;;;;24.60;41.43;94895.13;5083286;28;20047;-75